Aviation Digital Data Service (ADDS)

Output produced by METARs form (1919 UTC 18 April 2019)
found at http://www.aviationweather.gov/metar/data/
 
METAR text: WIMM 181630Z 25003KT 6000 SCT017 26/24 Q1010 NOSIG
Conditions at: WIMM (MEDAN/POLONIA (M, ID) observed 1630 UTC 18 April 2019
Temperature: 26.0°C (79°F)
Dewpoint: 24.0°C (75°F) [RH = 89%]
Pressure (altimeter): 29.82 inches Hg (1010.0 mb)
Winds: from the WSW (250 degrees) at 3 MPH (3 knots; 1.5 m/s)
Visibility: 4 miles ( 6 km)
Ceiling: at least 12,000 feet AGL
Clouds: scattered clouds at 1700 feet AGL
Weather: no significant weather observed at this time

METAR text: WIMM 181600Z 25004KT 6000 SCT017 26/24 Q1010 NOSIG
Conditions at: WIMM (MEDAN/POLONIA (M, ID) observed 1600 UTC 18 April 2019
Temperature: 26.0°C (79°F)
Dewpoint: 24.0°C (75°F) [RH = 89%]
Pressure (altimeter): 29.82 inches Hg (1010.0 mb)
Winds: from the WSW (250 degrees) at 5 MPH (4 knots; 2.1 m/s)
Visibility: 4 miles ( 6 km)
Ceiling: at least 12,000 feet AGL
Clouds: scattered clouds at 1700 feet AGL
Weather: no significant weather observed at this time

METAR text: WIMM 181500Z 23004KT 7000 SCT017 27/24 Q1010 NOSIG
Conditions at: WIMM (MEDAN/POLONIA (M, ID) observed 1500 UTC 18 April 2019
Temperature: 27.0°C (81°F)
Dewpoint: 24.0°C (75°F) [RH = 84%]
Pressure (altimeter): 29.82 inches Hg (1010.0 mb)
Winds: from the SW (230 degrees) at 5 MPH (4 knots; 2.1 m/s)
Visibility: 4 miles ( 7 km)
Ceiling: at least 12,000 feet AGL
Clouds: scattered clouds at 1700 feet AGL
Weather: no significant weather observed at this time

METAR text: WIMM 181330Z 22003KT 5000 HZ SCT017 27/24 Q1008 NOSIG
Conditions at: WIMM (MEDAN/POLONIA (M, ID) observed 1330 UTC 18 April 2019
Temperature: 27.0°C (81°F)
Dewpoint: 24.0°C (75°F) [RH = 84%]
Pressure (altimeter): 29.76 inches Hg (1008.0 mb)
Winds: from the SW (220 degrees) at 3 MPH (3 knots; 1.5 m/s)
Visibility: 3 miles ( 5 km)
Ceiling: at least 12,000 feet AGL
Clouds: scattered clouds at 1700 feet AGL
Weather: HZ  (haze)

METAR text: WIMM 181200Z 20004KT 7000 SCT017 28/24 Q1007 NOSIG
Conditions at: WIMM (MEDAN/POLONIA (M, ID) observed 1200 UTC 18 April 2019
Temperature: 28.0°C (82°F)
Dewpoint: 24.0°C (75°F) [RH = 79%]
Pressure (altimeter): 29.73 inches Hg (1007.0 mb)
Winds: from the SSW (200 degrees) at 5 MPH (4 knots; 2.1 m/s)
Visibility: 4 miles ( 7 km)
Ceiling: at least 12,000 feet AGL
Clouds: scattered clouds at 1700 feet AGL
Weather: no significant weather observed at this time

METAR text: WIMM 181000Z 08004KT 9999 FEW018 30/25 Q1006 NOSIG
Conditions at: WIMM (MEDAN/POLONIA (M, ID) observed 1000 UTC 18 April 2019
Temperature: 30.0°C (86°F)
Dewpoint: 25.0°C (77°F) [RH = 75%]
Pressure (altimeter): 29.70 inches Hg (1006.0 mb)
Winds: from the E (80 degrees) at 5 MPH (4 knots; 2.1 m/s)
Visibility: 6 or more miles (10+ km)
Ceiling: at least 12,000 feet AGL
Clouds: few clouds at 1800 feet AGL
Weather: no significant weather observed at this time

METAR text: WIMM 180900Z 01004KT 9999 SCT018 31/25 Q1006 NOSIG
Conditions at: WIMM (MEDAN/POLONIA (M, ID) observed 0900 UTC 18 April 2019
Temperature: 31.0°C (88°F)
Dewpoint: 25.0°C (77°F) [RH = 71%]
Pressure (altimeter): 29.70 inches Hg (1006.0 mb)
Winds: from the N (10 degrees) at 5 MPH (4 knots; 2.1 m/s)
Visibility: 6 or more miles (10+ km)
Ceiling: at least 12,000 feet AGL
Clouds: scattered clouds at 1800 feet AGL
Weather: no significant weather observed at this time

METAR text: WIMM 180800Z 27006KT 9000 TS FEW016CB BKN017 30/23 Q1007 NOSIG
Conditions at: WIMM (MEDAN/POLONIA (M, ID) observed 0800 UTC 18 April 2019
Temperature: 30.0°C (86°F)
Dewpoint: 23.0°C (73°F) [RH = 66%]
Pressure (altimeter): 29.73 inches Hg (1007.0 mb)
Winds: from the W (270 degrees) at 7 MPH (6 knots; 3.1 m/s)
Visibility: 6 miles ( 9 km)
Ceiling: 1700 feet AGL
Clouds: few clouds at 1600 feet AGL
broken clouds at 1700 feet AGL
Weather: TS  (thunderstorm)

METAR text: WIMM 180700Z 07008KT 9999 TS FEW016CB BKN017 31/24 Q1008 NOSIG
Conditions at: WIMM (MEDAN/POLONIA (M, ID) observed 0700 UTC 18 April 2019
Temperature: 31.0°C (88°F)
Dewpoint: 24.0°C (75°F) [RH = 66%]
Pressure (altimeter): 29.76 inches Hg (1008.0 mb)
Winds: from the ENE (70 degrees) at 9 MPH (8 knots; 4.1 m/s)
Visibility: 6 or more miles (10+ km)
Ceiling: 1700 feet AGL
Clouds: few clouds at 1600 feet AGL
broken clouds at 1700 feet AGL
Weather: TS  (thunderstorm)

METAR text: WIMM 180600Z 04011KT 350V050 9000 FEW017CB SCT018 33/26 Q1009 NOSIG
Conditions at: WIMM (MEDAN/POLONIA (M, ID) observed 0600 UTC 18 April 2019
Temperature: 33.0°C (91°F)
Dewpoint: 26.0°C (79°F) [RH = 67%]
Pressure (altimeter): 29.79 inches Hg (1009.0 mb)
Winds: from the NE (40 degrees) at 13 MPH (11 knots; 5.7 m/s)
Visibility: 6 miles ( 9 km)
Ceiling: at least 12,000 feet AGL
Clouds: few clouds at 1700 feet AGL
scattered clouds at 1800 feet AGL
Weather: no significant weather observed at this time

METAR text: WIMM 180500Z 35007KT 330V040 9000 SCT017 33/26 Q1010 NOSIG
Conditions at: WIMM (MEDAN/POLONIA (M, ID) observed 0500 UTC 18 April 2019
Temperature: 33.0°C (91°F)
Dewpoint: 26.0°C (79°F) [RH = 67%]
Pressure (altimeter): 29.82 inches Hg (1010.0 mb)
Winds: from the N (350 degrees) at 8 MPH (7 knots; 3.6 m/s)
Visibility: 6 miles ( 9 km)
Ceiling: at least 12,000 feet AGL
Clouds: scattered clouds at 1700 feet AGL
Weather: no significant weather observed at this time

METAR text: WIMM 180400Z 34004KT 330V030 9999 SCT017 32/25 Q1010 NOSIG
Conditions at: WIMM (MEDAN/POLONIA (M, ID) observed 0400 UTC 18 April 2019
Temperature: 32.0°C (90°F)
Dewpoint: 25.0°C (77°F) [RH = 67%]
Pressure (altimeter): 29.82 inches Hg (1010.0 mb)
Winds: from the NNW (340 degrees) at 5 MPH (4 knots; 2.1 m/s)
Visibility: 6 or more miles (10+ km)
Ceiling: at least 12,000 feet AGL
Clouds: scattered clouds at 1700 feet AGL
Weather: no significant weather observed at this time

METAR text: WIMM 180330Z 25003KT 9999 SCT017 32/25 Q1010 NOSIG
Conditions at: WIMM (MEDAN/POLONIA (M, ID) observed 0330 UTC 18 April 2019
Temperature: 32.0°C (90°F)
Dewpoint: 25.0°C (77°F) [RH = 67%]
Pressure (altimeter): 29.82 inches Hg (1010.0 mb)
Winds: from the WSW (250 degrees) at 3 MPH (3 knots; 1.5 m/s)
Visibility: 6 or more miles (10+ km)
Ceiling: at least 12,000 feet AGL
Clouds: scattered clouds at 1700 feet AGL
Weather: no significant weather observed at this time

METAR text: WIMM 180200Z 00000KT 7000 FEW018 29/26 Q1010 NOSIG
Conditions at: WIMM (MEDAN/POLONIA (M, ID) observed 0200 UTC 18 April 2019
Temperature: 29.0°C (84°F)
Dewpoint: 26.0°C (79°F) [RH = 84%]
Pressure (altimeter): 29.82 inches Hg (1010.0 mb)
Winds: calm
Visibility: 4 miles ( 7 km)
Ceiling: at least 12,000 feet AGL
Clouds: few clouds at 1800 feet AGL
Weather: no significant weather observed at this time

METAR text: WIMM 180100Z 24004KT 2500 HZ FEW018 27/26 Q1009 NOSIG
Conditions at: WIMM (MEDAN/POLONIA (M, ID) observed 0100 UTC 18 April 2019
Temperature: 27.0°C (81°F)
Dewpoint: 26.0°C (79°F) [RH = 94%]
Pressure (altimeter): 29.79 inches Hg (1009.0 mb)
Winds: from the WSW (240 degrees) at 5 MPH (4 knots; 2.1 m/s)
Visibility: 1.55 miles (2.49 km)
Ceiling: at least 12,000 feet AGL
Clouds: few clouds at 1800 feet AGL
Weather: HZ  (haze)

METAR text: WIMM 180000Z 25003KT 0800 R05/0800 R23/0800 FG SCT017 25/25 Q1008 NOSIG
Conditions at: WIMM (MEDAN/POLONIA (M, ID) observed 0000 UTC 18 April 2019
Temperature: 25.0°C (77°F)
Dewpoint: 25.0°C (77°F) [RH = 100%]
Pressure (altimeter): 29.76 inches Hg (1008.0 mb)
Winds: from the WSW (250 degrees) at 3 MPH (3 knots; 1.5 m/s)
Visibility: 0.50 miles (0.80 km)
Ceiling: at least 12,000 feet AGL
Clouds: scattered clouds at 1700 feet AGL
Weather: FG  (fog)

METAR text: WIMM 172200Z 24003KT 2500 R05/P2000 R23/P2000 BR SCT017 26/26 Q1007 NOSIG
Conditions at: WIMM (MEDAN/POLONIA (M, ID) observed 2200 UTC 17 April 2019
Temperature: 26.0°C (79°F)
Dewpoint: 26.0°C (79°F) [RH = 100%]
Pressure (altimeter): 29.73 inches Hg (1007.0 mb)
Winds: from the WSW (240 degrees) at 3 MPH (3 knots; 1.5 m/s)
Visibility: 1.55 miles (2.49 km)
Ceiling: at least 12,000 feet AGL
Clouds: scattered clouds at 1700 feet AGL
Weather: BR  (mist)

METAR text: WIMM 171600Z 00000KT 6000 SCT017 27/26 Q1010 NOSIG
Conditions at: WIMM (MEDAN/POLONIA (M, ID) observed 1600 UTC 17 April 2019
Temperature: 27.0°C (81°F)
Dewpoint: 26.0°C (79°F) [RH = 94%]
Pressure (altimeter): 29.82 inches Hg (1010.0 mb)
Winds: calm
Visibility: 4 miles ( 6 km)
Ceiling: at least 12,000 feet AGL
Clouds: scattered clouds at 1700 feet AGL
Weather: no significant weather observed at this time

METAR text: WIMM 171400Z 00000KT 6000 SCT017 28/26 Q1009 NOSIG
Conditions at: WIMM (MEDAN/POLONIA (M, ID) observed 1400 UTC 17 April 2019
Temperature: 28.0°C (82°F)
Dewpoint: 26.0°C (79°F) [RH = 89%]
Pressure (altimeter): 29.79 inches Hg (1009.0 mb)
Winds: calm
Visibility: 4 miles ( 6 km)
Ceiling: at least 12,000 feet AGL
Clouds: scattered clouds at 1700 feet AGL
Weather: no significant weather observed at this time

METAR text: WIMM 171300Z 10004KT 6000 SCT017 29/26 Q1008 NOSIG
Conditions at: WIMM (MEDAN/POLONIA (M, ID) observed 1300 UTC 17 April 2019
Temperature: 29.0°C (84°F)
Dewpoint: 26.0°C (79°F) [RH = 84%]
Pressure (altimeter): 29.76 inches Hg (1008.0 mb)
Winds: from the E (100 degrees) at 5 MPH (4 knots; 2.1 m/s)
Visibility: 4 miles ( 6 km)
Ceiling: at least 12,000 feet AGL
Clouds: scattered clouds at 1700 feet AGL
Weather: no significant weather observed at this time

METAR text: WIMM 171200Z 06003KT 9999 FEW020 29/26 Q1007 NOSIG
Conditions at: WIMM (MEDAN/POLONIA (M, ID) observed 1200 UTC 17 April 2019
Temperature: 29.0°C (84°F)
Dewpoint: 26.0°C (79°F) [RH = 84%]
Pressure (altimeter): 29.73 inches Hg (1007.0 mb)
Winds: from the ENE (60 degrees) at 3 MPH (3 knots; 1.5 m/s)
Visibility: 6 or more miles (10+ km)
Ceiling: at least 12,000 feet AGL
Clouds: few clouds at 2000 feet AGL
Weather: no significant weather observed at this time

METAR text: WIMM 171100Z 06007KT 9999 FEW020 30/26 Q1007 NOSIG
Conditions at: WIMM (MEDAN/POLONIA (M, ID) observed 1100 UTC 17 April 2019
Temperature: 30.0°C (86°F)
Dewpoint: 26.0°C (79°F) [RH = 79%]
Pressure (altimeter): 29.73 inches Hg (1007.0 mb)
Winds: from the ENE (60 degrees) at 8 MPH (7 knots; 3.6 m/s)
Visibility: 6 or more miles (10+ km)
Ceiling: at least 12,000 feet AGL
Clouds: few clouds at 2000 feet AGL
Weather: no significant weather observed at this time

METAR text: WIMM 171000Z 04010KT 9999 FEW020 31/25 Q1006 NOSIG
Conditions at: WIMM (MEDAN/POLONIA (M, ID) observed 1000 UTC 17 April 2019
Temperature: 31.0°C (88°F)
Dewpoint: 25.0°C (77°F) [RH = 71%]
Pressure (altimeter): 29.70 inches Hg (1006.0 mb)
Winds: from the NE (40 degrees) at 12 MPH (10 knots; 5.1 m/s)
Visibility: 6 or more miles (10+ km)
Ceiling: at least 12,000 feet AGL
Clouds: few clouds at 2000 feet AGL
Weather: no significant weather observed at this time

METAR text: WIMM 170830Z 03009KT 9999 FEW020 32/26 Q1006 NOSIG
Conditions at: WIMM (MEDAN/POLONIA (M, ID) observed 0830 UTC 17 April 2019
Temperature: 32.0°C (90°F)
Dewpoint: 26.0°C (79°F) [RH = 71%]
Pressure (altimeter): 29.70 inches Hg (1006.0 mb)
Winds: from the NNE (30 degrees) at 10 MPH (9 knots; 4.6 m/s)
Visibility: 6 or more miles (10+ km)
Ceiling: at least 12,000 feet AGL
Clouds: few clouds at 2000 feet AGL
Weather: no significant weather observed at this time

Forecast for: WIMM (MEDAN/POLONIA (M, ID)
Text: TAF WIMM 181700Z 1818/1918 VRB05KT 5000 HZ SCT017
Forecast period: 1800 UTC 18 April 2019 to 0300 UTC 19 April 2019
Forecast type: FROM: standard forecast or significant change
Winds: variable direction winds at 6 MPH (5 knots; 2.6 m/s)
Visibility: 3 miles (5 km)
Ceiling: at least 12,000 feet AGL
Clouds: scattered clouds at 1700 feet AGL
Weather: HZ  (haze)
Text: BECMG 1903/1905 03010KT 9999 NSW
Forecast period: 0300 to 1200 UTC 19 April 2019
Forecast type: BECOMING: Conditions expected to become as follows by 0500 UTC 19 April 2019
Winds: from the NNE (30 degrees) at 12 MPH (10 knots; 5.1 m/s)
Visibility: 6 or more miles 10+ km)
Ceiling: at least 12,000 feet AGL
Clouds: scattered clouds at 1700 feet AGL
Weather: NSW  (no significant weather)
Text: BECMG 1912/1914 00000KT 5000 HZ FEW017CB SCT018
Forecast period: 1200 to 1800 UTC 19 April 2019
Forecast type: BECOMING: Conditions expected to become as follows by 1400 UTC 19 April 2019
Winds: calm
Visibility: 3 miles (5 km)
Ceiling: at least 12,000 feet AGL
Clouds: few clouds at 1700 feet AGL
scattered clouds at 1800 feet AGL
Weather: HZ  (haze)